createdAt,value
2018-06-04T00:01:08.607Z,60.83
2018-06-04T00:03:37.060Z,61.13
2018-06-04T00:06:05.554Z,61.34
2018-06-04T00:08:34.006Z,60.97
2018-06-04T00:11:02.462Z,61.24
2018-06-04T00:13:30.882Z,61.34
2018-06-04T00:15:59.911Z,61.88
2018-06-04T00:18:28.975Z,62.33
2018-06-04T00:20:57.457Z,61.97
2018-06-04T00:23:25.910Z,61.62
2018-06-04T00:25:54.747Z,61.18
2018-06-04T00:28:23.220Z,61.61
2018-06-04T00:30:51.718Z,60.71
2018-06-04T00:33:20.200Z,61.35
2018-06-04T00:35:49.185Z,61.49
2018-06-04T00:38:17.593Z,61.80
2018-06-04T00:40:46.383Z,62.24
2018-06-04T00:43:14.844Z,62.17
2018-06-04T00:45:43.273Z,62.04
2018-06-04T00:48:11.667Z,61.57
2018-06-04T00:50:40.122Z,61.53
2018-06-04T00:53:08.572Z,61.60
2018-06-04T00:55:48.262Z,61.77
2018-06-04T00:58:16.752Z,61.40
2018-06-04T01:00:45.257Z,62.27
2018-06-04T01:03:13.671Z,61.90
2018-06-04T01:05:42.080Z,62.34
2018-06-04T01:08:10.505Z,62.87
2018-06-04T01:10:38.999Z,62.97
2018-06-04T01:13:07.459Z,63.16
2018-06-04T01:15:35.883Z,63.56
2018-06-04T01:18:04.427Z,63.31
2018-06-04T01:20:32.996Z,63.24
2018-06-04T01:23:01.422Z,63.00
2018-06-04T01:25:30.190Z,63.66
2018-06-04T01:27:58.676Z,63.42
2018-06-04T01:30:27.160Z,63.45
2018-06-04T01:32:55.700Z,63.75
2018-06-04T01:35:24.240Z,63.59
2018-06-04T01:37:52.817Z,63.36
2018-06-04T01:40:21.371Z,63.32
2018-06-04T01:42:49.914Z,63.15
2018-06-04T01:45:18.401Z,63.34
2018-06-04T01:47:46.901Z,63.19
2018-06-04T01:50:15.403Z,63.48
2018-06-04T01:52:43.916Z,64.04
2018-06-04T01:55:12.951Z,64.05
2018-06-04T01:57:41.440Z,63.98
2018-06-04T02:00:10.327Z,64.00
2018-06-04T02:02:38.833Z,64.13
2018-06-04T02:05:07.643Z,64.74
2018-06-04T02:07:36.121Z,64.21
2018-06-04T02:10:04.818Z,64.09
2018-06-04T02:12:33.263Z,64.03
2018-06-04T02:15:01.713Z,64.66
2018-06-04T02:17:30.213Z,64.55
2018-06-04T02:19:58.715Z,64.60
2018-06-04T02:22:27.188Z,64.48
2018-06-04T02:24:55.757Z,64.32
2018-06-04T02:27:24.195Z,64.34
2018-06-04T02:29:52.745Z,64.81
2018-06-04T02:32:21.206Z,64.75
2018-06-04T02:34:49.653Z,65.29
2018-06-04T02:37:18.080Z,65.50
2018-06-04T02:39:46.778Z,65.66
2018-06-04T02:42:15.254Z,65.10
2018-06-04T02:44:43.813Z,65.42
2018-06-04T02:47:12.261Z,65.37
2018-06-04T02:49:41.386Z,65.23
2018-06-04T02:52:09.998Z,64.50
2018-06-04T02:54:38.493Z,65.44
2018-06-04T02:57:07.057Z,65.80
2018-06-04T02:59:35.608Z,65.89
2018-06-04T03:02:04.274Z,65.00
2018-06-04T03:04:32.796Z,65.26
2018-06-04T03:07:01.235Z,65.41
2018-06-04T03:09:30.034Z,65.24
2018-06-04T03:11:58.503Z,65.90
2018-06-04T03:14:27.216Z,66.27
2018-06-04T03:16:55.609Z,65.96
2018-06-04T03:19:24.138Z,66.40
2018-06-04T03:21:52.608Z,65.73
2018-06-04T03:24:21.041Z,66.18
2018-06-04T03:26:49.554Z,65.63
2018-06-04T03:29:18.279Z,65.77
2018-06-04T03:31:46.737Z,65.96
2018-06-04T03:34:15.610Z,65.75
2018-06-04T03:36:44.309Z,65.63
2018-06-04T03:39:12.760Z,66.00
2018-06-04T03:41:41.246Z,66.18
2018-06-04T03:44:09.786Z,66.26
2018-06-04T03:46:38.445Z,66.67
2018-06-04T03:49:06.906Z,67.18
2018-06-04T03:51:35.507Z,67.22
2018-06-04T03:54:04.188Z,67.35
2018-06-04T03:56:33.257Z,67.05
2018-06-04T03:59:02.295Z,67.58
2018-06-04T04:01:30.820Z,67.20
2018-06-04T04:04:02.776Z,67.20
2018-06-04T04:06:31.402Z,66.93
2018-06-04T04:08:59.855Z,66.86
2018-06-04T04:11:28.359Z,66.80
2018-06-04T04:13:56.839Z,66.57
2018-06-04T04:16:25.315Z,66.73
2018-06-04T04:18:54.380Z,66.57
2018-06-04T04:21:23.694Z,66.70
2018-06-04T04:23:52.251Z,66.57
2018-06-04T04:26:21.136Z,66.40
2018-06-04T04:28:50.594Z,66.41
2018-06-04T04:31:19.796Z,66.01
2018-06-04T04:33:48.519Z,66.16
2018-06-04T04:36:16.962Z,65.97
2018-06-04T04:38:45.399Z,66.05
2018-06-04T04:41:13.864Z,66.70
2018-06-04T04:43:42.340Z,67.25
2018-06-04T04:46:11.190Z,67.18
2018-06-04T04:48:39.580Z,67.33
2018-06-04T04:51:08.078Z,67.37
2018-06-04T04:53:36.954Z,67.72
2018-06-04T04:56:06.459Z,67.91
2018-06-04T04:58:34.891Z,67.75
2018-06-04T05:01:03.506Z,67.02
2018-06-04T05:03:32.106Z,67.06
2018-06-04T05:06:00.549Z,68.17
2018-06-04T05:08:28.980Z,67.61
2018-06-04T05:10:57.444Z,67.80
2018-06-04T05:13:26.008Z,68.58
2018-06-04T05:15:54.469Z,68.49
2018-06-04T05:18:23.446Z,69.26
2018-06-04T05:20:52.367Z,68.81
2018-06-04T05:23:20.777Z,69.18
2018-06-04T05:25:49.213Z,68.64
2018-06-04T05:28:17.740Z,68.61
2018-06-04T05:30:46.214Z,68.40
2018-06-04T05:33:14.586Z,67.86
2018-06-04T05:35:43.004Z,67.55
2018-06-04T05:38:11.457Z,67.84
2018-06-04T05:40:39.940Z,68.00
2018-06-04T05:43:09.461Z,67.30
2018-06-04T05:45:37.888Z,66.87
2018-06-04T05:48:06.391Z,66.20
2018-06-04T05:50:34.833Z,67.10
2018-06-04T05:53:03.240Z,66.20
2018-06-04T05:55:31.672Z,66.72
2018-06-04T05:58:00.120Z,67.36
2018-06-04T06:00:28.477Z,67.79
2018-06-04T06:02:57.581Z,67.57
2018-06-04T06:05:26.042Z,67.12
2018-06-04T06:07:54.459Z,67.30
2018-06-04T06:10:23.584Z,68.07
2018-06-04T06:12:52.059Z,66.82
2018-06-04T06:15:20.492Z,65.23
2018-06-04T06:17:49.550Z,64.80
2018-06-04T06:20:17.982Z,65.28
2018-06-04T06:22:46.425Z,65.45
2018-06-04T06:25:14.861Z,65.11
2018-06-04T06:27:43.307Z,63.85
2018-06-04T06:30:11.824Z,63.65
2018-06-04T06:32:40.239Z,64.33
2018-06-04T06:35:08.903Z,62.70
2018-06-04T06:37:37.324Z,63.45
2018-06-04T06:40:06.217Z,62.24
2018-06-04T06:42:34.695Z,62.19
2018-06-04T06:45:03.221Z,63.32
2018-06-04T06:47:31.645Z,62.62
2018-06-04T06:50:00.061Z,61.42
2018-06-04T06:52:28.500Z,62.21
2018-06-04T06:54:56.945Z,61.38
2018-06-04T06:57:26.087Z,61.12
2018-06-04T06:59:54.486Z,61.22
2018-06-04T07:02:22.925Z,61.83
2018-06-04T07:04:51.339Z,62.52
2018-06-04T07:07:19.804Z,62.35
2018-06-04T07:09:48.194Z,62.22
2018-06-04T07:12:16.631Z,61.85
2018-06-04T07:14:45.103Z,61.26
2018-06-04T07:17:13.548Z,61.58
2018-06-04T07:19:41.954Z,59.59
2018-06-04T07:22:10.413Z,59.74
2018-06-04T07:24:38.836Z,58.49
2018-06-04T07:27:07.291Z,58.56
2018-06-04T07:29:35.678Z,59.00
2018-06-04T07:32:04.178Z,59.16
2018-06-04T07:34:32.598Z,58.84
2018-06-04T07:37:01.036Z,58.44
2018-06-04T07:39:29.440Z,56.33
2018-06-04T07:41:57.966Z,56.39
2018-06-04T07:44:26.423Z,55.67
2018-06-04T07:46:54.790Z,56.05
2018-06-04T07:49:23.585Z,55.90
2018-06-04T07:51:52.095Z,55.68
2018-06-04T07:54:20.675Z,54.36
2018-06-04T07:56:49.877Z,54.38
2018-06-04T07:59:18.415Z,53.42
2018-06-04T08:01:47.043Z,53.45
2018-06-04T08:04:15.473Z,54.04
2018-06-04T08:06:43.896Z,53.70
2018-06-04T08:09:12.372Z,54.16
2018-06-04T08:11:40.862Z,53.65
2018-06-04T08:14:09.521Z,54.71
2018-06-04T08:16:37.956Z,52.92
2018-06-04T08:19:06.329Z,51.25
2018-06-04T08:21:37.644Z,52.63
2018-06-04T08:24:06.378Z,52.51
2018-06-04T08:26:34.905Z,50.84
2018-06-04T08:29:03.294Z,50.99
2018-06-04T08:31:32.075Z,51.97
2018-06-04T08:34:00.484Z,51.59
2018-06-04T08:36:28.927Z,50.68
2018-06-04T08:38:57.436Z,50.61
2018-06-04T08:41:25.855Z,50.76
2018-06-04T08:43:54.394Z,50.12
2018-06-04T08:46:22.797Z,49.78
2018-06-04T08:48:51.229Z,50.04
2018-06-04T08:51:19.614Z,50.45
2018-06-04T08:53:48.059Z,48.18
2018-06-04T08:56:16.660Z,46.65
2018-06-04T08:58:45.016Z,48.21
2018-06-04T09:01:13.455Z,49.01
2018-06-04T09:03:42.549Z,48.67
2018-06-04T09:06:11.001Z,46.81
2018-06-04T09:08:39.418Z,45.44
2018-06-04T09:11:07.879Z,45.59
2018-06-04T09:13:36.317Z,46.85
2018-06-04T09:16:04.722Z,44.84
2018-06-04T09:18:33.397Z,44.63
2018-06-04T09:21:01.809Z,44.71
2018-06-04T09:23:30.277Z,45.80
2018-06-04T09:25:58.992Z,42.87
2018-06-04T09:28:27.449Z,42.77
2018-06-04T09:30:55.981Z,43.40
2018-06-04T09:33:24.460Z,44.41
2018-06-04T09:35:53.013Z,42.54
2018-06-04T09:38:21.509Z,43.53
2018-06-04T09:40:49.960Z,43.37
2018-06-04T09:43:18.552Z,42.93
2018-06-04T09:45:47.015Z,40.03
2018-06-04T09:48:15.422Z,41.82
2018-06-04T09:50:44.729Z,39.90
2018-06-04T09:53:13.207Z,39.68
2018-06-04T09:55:41.663Z,40.58
2018-06-04T09:58:10.464Z,39.47
2018-06-04T10:00:39.276Z,37.71
2018-06-04T10:03:07.715Z,39.45
2018-06-04T10:05:36.231Z,37.97
2018-06-04T10:08:04.711Z,35.66
2018-06-04T10:10:33.160Z,33.22
2018-06-04T10:13:01.592Z,32.08
2018-06-04T10:15:30.154Z,34.62
2018-06-04T10:17:58.635Z,34.62
2018-06-04T10:20:27.473Z,34.19
2018-06-04T10:22:56.189Z,32.73
2018-06-04T10:25:24.603Z,34.13
2018-06-04T10:27:53.035Z,34.93
2018-06-04T10:30:22.213Z,35.08
2018-06-04T10:32:51.294Z,34.62
2018-06-04T10:35:20.011Z,35.04
2018-06-04T10:37:49.182Z,35.33
2018-06-04T10:40:17.754Z,34.63
2018-06-04T10:42:46.680Z,34.89
2018-06-04T10:45:15.118Z,36.31
2018-06-04T10:47:43.565Z,34.77
2018-06-04T10:50:12.170Z,35.26
2018-06-04T10:52:40.625Z,35.46
2018-06-04T10:55:09.094Z,36.06
2018-06-04T10:57:37.573Z,35.14
2018-06-04T11:00:06.095Z,33.74
2018-06-04T11:02:34.517Z,35.17
2018-06-04T11:05:02.986Z,34.04
2018-06-04T11:07:31.462Z,34.10
2018-06-04T11:09:59.969Z,34.75
2018-06-04T11:12:28.702Z,35.23
2018-06-04T11:14:57.184Z,34.15
2018-06-04T11:17:25.610Z,34.75
2018-06-04T11:19:54.135Z,34.48
2018-06-04T11:22:22.601Z,34.78
2018-06-04T11:24:51.073Z,34.69
2018-06-04T11:27:19.696Z,33.97
2018-06-04T11:29:48.172Z,34.15
2018-06-04T11:32:16.635Z,33.17
2018-06-04T11:34:45.159Z,33.37
2018-06-04T11:37:13.622Z,33.22
2018-06-04T11:39:42.082Z,33.47
2018-06-04T11:42:10.724Z,33.50
2018-06-04T11:44:39.154Z,34.45
2018-06-04T11:47:08.229Z,33.63
2018-06-04T11:49:36.659Z,34.05
2018-06-04T11:52:05.107Z,34.65
2018-06-04T11:54:33.607Z,32.71
2018-06-04T11:57:02.191Z,33.21
2018-06-04T11:59:30.648Z,30.93
2018-06-04T12:01:59.604Z,32.38
2018-06-04T12:04:28.222Z,32.68
2018-06-04T12:06:56.668Z,32.76
2018-06-04T12:09:25.142Z,33.51
2018-06-04T12:11:53.627Z,31.49
2018-06-04T12:14:22.069Z,31.52
2018-06-04T12:16:50.577Z,33.35
2018-06-04T12:19:19.011Z,33.35
2018-06-04T12:21:47.447Z,31.22
2018-06-04T12:24:16.000Z,32.11
2018-06-04T12:26:44.477Z,32.35
2018-06-04T12:29:12.890Z,33.57
2018-06-04T12:31:41.286Z,32.11
2018-06-04T12:34:09.689Z,33.03
2018-06-04T12:36:38.132Z,32.21
2018-06-04T12:39:08.952Z,31.07
2018-06-04T12:41:37.418Z,31.60
2018-06-04T12:44:05.854Z,30.86
2018-06-04T12:46:34.634Z,29.47
2018-06-04T12:49:03.076Z,29.33
2018-06-04T12:51:33.288Z,27.35
2018-06-04T12:54:01.772Z,26.73
2018-06-04T12:56:30.251Z,26.17
2018-06-04T12:58:58.711Z,24.05
2018-06-04T13:01:27.194Z,24.15
2018-06-04T13:03:55.676Z,22.22
2018-06-04T13:06:24.102Z,21.47
2018-06-04T13:08:52.562Z,23.59
2018-06-04T13:11:20.985Z,25.06
2018-06-04T13:13:49.536Z,26.79
2018-06-04T13:16:18.029Z,26.46
2018-06-04T13:18:46.496Z,25.87
2018-06-04T13:21:15.092Z,25.28
2018-06-04T13:23:43.500Z,25.18
2018-06-04T13:26:11.924Z,24.80
2018-06-04T13:28:40.418Z,25.29
2018-06-04T13:31:08.822Z,26.29
2018-06-04T13:33:37.352Z,25.72
2018-06-04T13:36:05.922Z,25.21
2018-06-04T13:38:34.319Z,25.54
2018-06-04T13:41:02.789Z,24.58
2018-06-04T13:43:31.214Z,23.65
2018-06-04T13:45:59.667Z,23.77
2018-06-04T13:48:28.075Z,23.28
2018-06-04T13:50:56.562Z,22.55
2018-06-04T13:53:25.018Z,21.74
2018-06-04T13:55:53.511Z,21.51
2018-06-04T13:58:21.979Z,21.79
2018-06-04T14:00:51.087Z,21.34
2018-06-04T14:03:19.543Z,21.85
2018-06-04T14:05:47.977Z,23.18
2018-06-04T14:08:16.637Z,23.65
2018-06-04T14:10:45.097Z,24.62
2018-06-04T14:13:13.549Z,24.96
2018-06-04T14:15:42.854Z,25.44
2018-06-04T14:18:11.343Z,24.63
2018-06-04T14:20:40.944Z,26.01
2018-06-04T14:23:09.424Z,26.17
2018-06-04T14:25:37.850Z,25.46
2018-06-04T14:28:06.302Z,26.31
2018-06-04T14:30:34.829Z,26.75
2018-06-04T14:33:03.279Z,25.25
2018-06-04T14:35:31.765Z,25.46
2018-06-04T14:38:00.216Z,25.54
2018-06-04T14:40:28.734Z,25.65
2018-06-04T14:42:57.260Z,25.13
2018-06-04T14:45:25.721Z,24.67
2018-06-04T14:47:54.183Z,23.08
2018-06-04T14:50:22.749Z,23.55
2018-06-04T14:52:51.289Z,23.26
2018-06-04T14:55:19.842Z,24.10
2018-06-04T14:57:48.503Z,23.62
2018-06-04T15:00:16.959Z,22.56
2018-06-04T15:02:45.432Z,24.00
2018-06-04T15:05:13.969Z,24.10
2018-06-04T15:07:42.424Z,25.70
2018-06-04T15:10:10.885Z,25.96
2018-06-04T15:12:39.330Z,26.52
2018-06-04T15:15:07.987Z,26.97
2018-06-04T15:17:36.447Z,26.89
2018-06-04T15:20:05.143Z,26.65
2018-06-04T15:22:33.575Z,26.54
2018-06-04T15:25:02.470Z,26.17
2018-06-04T15:27:36.251Z,27.31
2018-06-04T15:30:06.444Z,27.81
2018-06-04T15:32:38.550Z,26.61
2018-06-04T15:35:07.575Z,26.68
2018-06-04T15:37:38.922Z,27.72
2018-06-04T15:40:07.445Z,27.69
2018-06-04T15:42:36.955Z,27.94
2018-06-04T15:45:06.612Z,29.10
2018-06-04T15:47:36.521Z,28.44
2018-06-04T15:50:05.591Z,27.81
2018-06-04T15:52:34.953Z,27.61
2018-06-04T15:55:03.829Z,28.35
2018-06-04T15:57:33.696Z,27.89
2018-06-04T16:00:05.096Z,28.15
2018-06-04T16:02:34.306Z,27.79
2018-06-04T16:05:04.007Z,27.71
2018-06-04T16:07:50.102Z,27.34
2018-06-04T16:10:23.847Z,27.71
2018-06-04T16:12:52.435Z,28.08
2018-06-04T16:15:34.572Z,28.58
2018-06-04T16:21:46.047Z,28.34
2018-06-04T16:24:14.688Z,28.36
2018-06-04T16:26:46.137Z,29.18
2018-06-04T16:29:17.461Z,28.56
2018-06-04T16:31:48.388Z,29.02
2018-06-04T16:34:17.035Z,29.28
2018-06-04T16:36:45.641Z,29.03
2018-06-04T16:39:14.493Z,29.02
2018-06-04T16:41:42.988Z,29.53
2018-06-04T16:44:11.525Z,28.95
2018-06-04T16:46:46.365Z,29.77
2018-06-04T16:49:15.813Z,29.34
2018-06-04T16:51:45.201Z,30.06
2018-06-04T16:54:17.833Z,29.92
2018-06-04T16:56:47.297Z,30.26
2018-06-04T16:59:16.219Z,30.03
2018-06-04T17:01:44.616Z,29.83
2018-06-04T17:04:13.653Z,29.26
2018-06-04T17:09:40.906Z,29.24
2018-06-04T17:12:10.029Z,29.14
2018-06-04T17:14:38.801Z,29.37
2018-06-04T17:17:08.818Z,28.88
2018-06-04T17:19:40.535Z,29.59
2018-06-04T17:22:16.835Z,30.44
2018-06-04T17:24:47.789Z,29.95
2018-06-04T17:27:18.655Z,30.21
2018-06-04T17:29:51.025Z,30.39
2018-06-04T17:32:24.214Z,30.71
2018-06-04T17:34:53.685Z,30.60
2018-06-04T17:37:22.269Z,30.20
2018-06-04T17:39:50.685Z,29.80
2018-06-04T17:42:22.912Z,30.04
2018-06-04T17:44:53.098Z,30.75
2018-06-04T17:47:27.666Z,30.68
2018-06-04T17:49:56.158Z,30.71
2018-06-04T17:52:25.173Z,30.50
2018-06-04T17:54:53.692Z,30.50
2018-06-04T17:57:22.196Z,31.03
2018-06-04T17:59:50.634Z,30.96
2018-06-04T18:02:19.424Z,30.73
2018-06-04T18:04:47.983Z,31.45
2018-06-04T18:07:16.634Z,30.94
2018-06-04T18:09:46.051Z,31.91
2018-06-04T18:12:15.544Z,32.11
2018-06-04T18:14:45.172Z,32.12
2018-06-04T18:17:13.741Z,32.38
2018-06-04T18:19:42.513Z,33.10
2018-06-04T18:22:12.374Z,32.67
2018-06-04T18:24:47.759Z,33.26
2018-06-04T18:27:19.267Z,33.30
2018-06-04T18:29:48.198Z,33.55
2018-06-04T18:32:17.282Z,33.22
2018-06-04T18:34:48.012Z,33.28
2018-06-04T18:37:16.946Z,33.63
2018-06-04T18:39:46.135Z,33.65
2018-06-04T18:42:15.233Z,33.55
2018-06-04T18:44:44.243Z,33.97
2018-06-04T18:47:14.356Z,34.47
2018-06-04T18:49:43.730Z,34.31
2018-06-04T18:52:14.469Z,34.85
2018-06-04T18:54:43.775Z,34.82
2018-06-04T18:57:13.936Z,34.67
2018-06-04T18:59:43.571Z,34.85
2018-06-04T19:02:16.524Z,35.22
2018-06-04T19:04:57.243Z,34.46
2018-06-04T19:07:25.818Z,34.90
2018-06-04T19:09:54.318Z,34.93
2018-06-04T19:12:23.280Z,35.19
2018-06-04T19:14:51.886Z,34.52
2018-06-04T19:17:20.368Z,34.87
2018-06-04T19:19:48.926Z,34.68
2018-06-04T19:22:17.573Z,34.77
2018-06-04T19:24:47.063Z,35.38
2018-06-04T19:27:15.729Z,34.49
2018-06-04T19:29:44.503Z,35.06
2018-06-04T19:32:13.066Z,35.69
2018-06-04T19:34:41.659Z,35.93
2018-06-04T19:37:10.573Z,35.58
2018-06-04T19:39:40.006Z,35.87
2018-06-04T19:42:08.556Z,36.21
2018-06-04T19:44:37.208Z,36.01
2018-06-04T19:47:10.032Z,36.58
2018-06-04T19:49:42.561Z,36.15
2018-06-04T19:52:14.949Z,36.31
2018-06-04T19:54:43.683Z,36.18
2018-06-04T19:57:12.194Z,36.98
2018-06-04T19:59:40.749Z,37.02
2018-06-04T20:02:09.256Z,37.63
2018-06-04T20:04:37.758Z,37.33
2018-06-04T20:07:12.973Z,37.83
2018-06-04T20:09:41.514Z,38.09
2018-06-04T20:12:10.042Z,38.15
2018-06-04T20:14:38.534Z,38.13
2018-06-04T20:17:07.148Z,38.09
2018-06-04T20:19:36.228Z,38.14
2018-06-04T20:22:04.870Z,39.01
2018-06-04T20:24:33.357Z,39.37
2018-06-04T20:27:01.868Z,38.69
2018-06-04T20:29:30.340Z,38.90
2018-06-04T20:31:58.961Z,39.50
2018-06-04T20:34:28.339Z,39.45
2018-06-04T20:36:56.879Z,39.70
2018-06-04T20:39:25.399Z,39.60
2018-06-04T20:41:54.270Z,40.51
2018-06-04T20:44:23.595Z,41.67
2018-06-04T20:46:52.187Z,41.31
2018-06-04T20:49:20.736Z,42.13
2018-06-04T20:51:49.300Z,41.68
2018-06-04T20:54:18.609Z,42.08
2018-06-04T20:56:47.242Z,42.42
2018-06-04T20:59:16.217Z,42.75
2018-06-04T21:01:45.052Z,42.27
2018-06-04T21:04:13.590Z,42.73
2018-06-04T21:06:42.150Z,42.78
2018-06-04T21:09:11.243Z,42.95
2018-06-04T21:11:39.885Z,43.76
2018-06-04T21:14:08.416Z,44.09
2018-06-04T21:16:37.021Z,43.58
2018-06-04T21:19:05.936Z,44.31
2018-06-04T21:21:34.531Z,44.11
2018-06-04T21:24:03.658Z,44.58
2018-06-04T21:26:33.250Z,44.62
2018-06-04T21:29:01.856Z,44.69
2018-06-04T21:31:30.648Z,44.95
2018-06-04T21:33:59.688Z,44.84
2018-06-04T21:36:29.442Z,45.44
2018-06-04T21:38:57.973Z,45.57
2018-06-04T21:41:28.289Z,45.40
2018-06-04T21:43:57.656Z,45.94
2018-06-04T21:46:27.024Z,45.51
2018-06-04T21:48:55.977Z,45.28
2018-06-04T21:51:25.037Z,46.14
2018-06-04T21:53:54.229Z,45.79
2018-06-04T21:56:23.593Z,46.30
2018-06-04T21:58:52.526Z,46.05
2018-06-04T22:01:21.067Z,46.48
2018-06-04T22:03:50.342Z,46.33
2018-06-04T22:06:18.957Z,46.01
2018-06-04T22:08:47.441Z,46.27
2018-06-04T22:11:16.072Z,46.54
2018-06-04T22:13:44.554Z,47.18
2018-06-04T22:16:13.087Z,47.29
2018-06-04T22:18:41.590Z,47.23
2018-06-04T22:21:10.090Z,47.27
2018-06-04T22:23:38.961Z,47.63
2018-06-04T22:26:07.483Z,48.27
2018-06-04T22:28:36.516Z,48.15
2018-06-04T22:31:06.574Z,48.74
2018-06-04T22:33:35.252Z,48.13
2018-06-04T22:36:03.878Z,48.25
2018-06-04T22:38:36.466Z,48.42
2018-06-04T22:41:05.697Z,47.94
2018-06-04T22:43:34.346Z,48.73
2018-06-04T22:46:03.195Z,48.48
2018-06-04T22:48:32.044Z,49.20
2018-06-04T22:51:00.910Z,49.88
2018-06-04T22:53:29.425Z,49.86
2018-06-04T22:55:57.865Z,49.24
2018-06-04T22:58:26.315Z,49.58
2018-06-04T23:00:54.797Z,49.70
2018-06-04T23:03:24.000Z,49.54
2018-06-04T23:05:52.541Z,49.43
2018-06-04T23:08:21.120Z,49.76
2018-06-04T23:10:49.601Z,49.99
2018-06-04T23:13:18.130Z,50.56
2018-06-04T23:15:46.619Z,50.44
2018-06-04T23:18:15.244Z,50.12
2018-06-04T23:20:43.742Z,49.93
2018-06-04T23:23:13.477Z,50.26
2018-06-04T23:25:41.976Z,50.75
2018-06-04T23:28:10.432Z,50.23
2018-06-04T23:30:38.867Z,50.57
2018-06-04T23:33:07.387Z,50.82
2018-06-04T23:35:35.999Z,51.81
2018-06-04T23:38:04.765Z,50.83
2018-06-04T23:40:33.572Z,51.11
2018-06-04T23:43:02.274Z,51.47
2018-06-04T23:45:30.902Z,51.76
2018-06-04T23:48:00.152Z,51.33
2018-06-04T23:50:28.630Z,51.74
2018-06-04T23:52:57.998Z,52.05
2018-06-04T23:55:26.451Z,51.94
2018-06-04T23:57:54.937Z,51.92
